sensor_id;sensor_type;location;lat;lon;timestamp;P1;durP1;ratioP1;P2;durP2;ratioP2
5688;SDS011;2869;50.432;8.680;2023-06-26T00:01:45;11.43;;;8.90;;
5688;SDS011;2869;50.432;8.680;2023-06-26T00:04:11;14.17;;;10.03;;
5688;SDS011;2869;50.432;8.680;2023-06-26T00:06:39;10.90;;;9.00;;
5688;SDS011;2869;50.432;8.680;2023-06-26T00:09:06;10.80;;;8.37;;
5688;SDS011;2869;50.432;8.680;2023-06-26T00:11:33;11.57;;;9.30;;
5688;SDS011;2869;50.432;8.680;2023-06-26T00:14:01;10.20;;;8.60;;
5688;SDS011;2869;50.432;8.680;2023-06-26T00:16:27;11.10;;;9.70;;
5688;SDS011;2869;50.432;8.680;2023-06-26T00:18:56;9.40;;;8.37;;
5688;SDS011;2869;50.432;8.680;2023-06-26T00:21:23;14.47;;;10.13;;
5688;SDS011;2869;50.432;8.680;2023-06-26T00:23:50;9.93;;;8.77;;
5688;SDS011;2869;50.432;8.680;2023-06-26T00:26:17;15.97;;;8.50;;
5688;SDS011;2869;50.432;8.680;2023-06-26T00:28:43;16.03;;;9.40;;
5688;SDS011;2869;50.432;8.680;2023-06-26T00:31:11;11.50;;;8.97;;
5688;SDS011;2869;50.432;8.680;2023-06-26T00:33:38;14.00;;;9.10;;
5688;SDS011;2869;50.432;8.680;2023-06-26T00:36:05;9.87;;;8.83;;
5688;SDS011;2869;50.432;8.680;2023-06-26T00:38:31;12.53;;;8.70;;
5688;SDS011;2869;50.432;8.680;2023-06-26T00:40:58;9.67;;;8.67;;
5688;SDS011;2869;50.432;8.680;2023-06-26T00:43:24;11.77;;;8.77;;
5688;SDS011;2869;50.432;8.680;2023-06-26T00:45:51;13.27;;;9.43;;
5688;SDS011;2869;50.432;8.680;2023-06-26T00:48:19;12.93;;;10.13;;
5688;SDS011;2869;50.432;8.680;2023-06-26T00:50:46;14.37;;;11.20;;
5688;SDS011;2869;50.432;8.680;2023-06-26T00:53:12;11.47;;;9.70;;
5688;SDS011;2869;50.432;8.680;2023-06-26T00:55:39;10.80;;;9.70;;
5688;SDS011;2869;50.432;8.680;2023-06-26T00:58:06;11.43;;;10.03;;
5688;SDS011;2869;50.432;8.680;2023-06-26T01:00:32;11.07;;;9.63;;
5688;SDS011;2869;50.432;8.680;2023-06-26T01:02:59;12.20;;;9.43;;
5688;SDS011;2869;50.432;8.680;2023-06-26T01:05:27;11.40;;;9.80;;
5688;SDS011;2869;50.432;8.680;2023-06-26T01:07:55;10.70;;;9.40;;
5688;SDS011;2869;50.432;8.680;2023-06-26T01:10:23;14.03;;;9.90;;
5688;SDS011;2869;50.432;8.680;2023-06-26T01:12:52;12.90;;;10.17;;
5688;SDS011;2869;50.432;8.680;2023-06-26T01:15:19;15.57;;;10.40;;
5688;SDS011;2869;50.432;8.680;2023-06-26T01:17:46;12.67;;;9.80;;
5688;SDS011;2869;50.432;8.680;2023-06-26T01:20:13;12.97;;;9.50;;
5688;SDS011;2869;50.432;8.680;2023-06-26T01:22:45;12.77;;;10.00;;
5688;SDS011;2869;50.432;8.680;2023-06-26T01:25:23;12.23;;;10.67;;
5688;SDS011;2869;50.432;8.680;2023-06-26T01:28:05;16.93;;;9.83;;
5688;SDS011;2869;50.432;8.680;2023-06-26T01:30:32;12.90;;;10.50;;
5688;SDS011;2869;50.432;8.680;2023-06-26T01:33:00;12.10;;;10.20;;
5688;SDS011;2869;50.432;8.680;2023-06-26T01:35:28;15.93;;;10.77;;
5688;SDS011;2869;50.432;8.680;2023-06-26T01:40:37;13.43;;;11.10;;
5688;SDS011;2869;50.432;8.680;2023-06-26T01:43:05;12.60;;;10.03;;
5688;SDS011;2869;50.432;8.680;2023-06-26T01:45:35;13.20;;;10.50;;
5688;SDS011;2869;50.432;8.680;2023-06-26T01:48:02;12.97;;;10.30;;
5688;SDS011;2869;50.432;8.680;2023-06-26T01:50:34;10.47;;;9.37;;
5688;SDS011;2869;50.432;8.680;2023-06-26T01:53:04;12.13;;;9.90;;
5688;SDS011;2869;50.432;8.680;2023-06-26T01:55:37;11.53;;;10.20;;
5688;SDS011;2869;50.432;8.680;2023-06-26T01:58:11;13.50;;;10.97;;
5688;SDS011;2869;50.432;8.680;2023-06-26T02:00:41;13.70;;;10.67;;
5688;SDS011;2869;50.432;8.680;2023-06-26T02:03:09;13.60;;;11.30;;
5688;SDS011;2869;50.432;8.680;2023-06-26T02:05:35;12.53;;;10.90;;
5688;SDS011;2869;50.432;8.680;2023-06-26T02:08:02;11.83;;;9.57;;
5688;SDS011;2869;50.432;8.680;2023-06-26T02:10:29;11.37;;;10.17;;
5688;SDS011;2869;50.432;8.680;2023-06-26T02:12:55;13.93;;;9.70;;
5688;SDS011;2869;50.432;8.680;2023-06-26T02:15:23;12.80;;;10.53;;
5688;SDS011;2869;50.432;8.680;2023-06-26T02:17:50;10.90;;;9.80;;
5688;SDS011;2869;50.432;8.680;2023-06-26T02:20:17;13.50;;;10.47;;
5688;SDS011;2869;50.432;8.680;2023-06-26T02:22:43;14.20;;;10.77;;
5688;SDS011;2869;50.432;8.680;2023-06-26T02:25:10;15.67;;;10.77;;
5688;SDS011;2869;50.432;8.680;2023-06-26T02:27:37;13.23;;;10.30;;
5688;SDS011;2869;50.432;8.680;2023-06-26T02:30:04;10.00;;;9.00;;
5688;SDS011;2869;50.432;8.680;2023-06-26T02:32:33;13.53;;;10.77;;
5688;SDS011;2869;50.432;8.680;2023-06-26T02:35:00;12.33;;;10.23;;
5688;SDS011;2869;50.432;8.680;2023-06-26T02:37:26;16.03;;;10.47;;
5688;SDS011;2869;50.432;8.680;2023-06-26T02:39:53;12.97;;;9.70;;
5688;SDS011;2869;50.432;8.680;2023-06-26T02:42:19;12.93;;;10.70;;
5688;SDS011;2869;50.432;8.680;2023-06-26T02:44:46;15.10;;;10.40;;
5688;SDS011;2869;50.432;8.680;2023-06-26T02:47:13;12.90;;;10.90;;
5688;SDS011;2869;50.432;8.680;2023-06-26T02:49:41;14.00;;;9.63;;
5688;SDS011;2869;50.432;8.680;2023-06-26T02:52:07;12.07;;;10.37;;
5688;SDS011;2869;50.432;8.680;2023-06-26T02:54:34;14.20;;;10.30;;
5688;SDS011;2869;50.432;8.680;2023-06-26T02:57:00;15.97;;;11.33;;
5688;SDS011;2869;50.432;8.680;2023-06-26T02:59:27;10.90;;;9.77;;
5688;SDS011;2869;50.432;8.680;2023-06-26T03:01:54;13.60;;;10.30;;
5688;SDS011;2869;50.432;8.680;2023-06-26T03:04:21;15.00;;;10.23;;
5688;SDS011;2869;50.432;8.680;2023-06-26T03:06:49;12.80;;;10.73;;
5688;SDS011;2869;50.432;8.680;2023-06-26T03:09:15;12.13;;;10.20;;
5688;SDS011;2869;50.432;8.680;2023-06-26T03:11:42;21.97;;;10.80;;
5688;SDS011;2869;50.432;8.680;2023-06-26T03:14:09;13.90;;;10.33;;
5688;SDS011;2869;50.432;8.680;2023-06-26T03:16:36;16.27;;;10.77;;
5688;SDS011;2869;50.432;8.680;2023-06-26T03:19:02;12.83;;;10.80;;
5688;SDS011;2869;50.432;8.680;2023-06-26T03:21:29;19.00;;;11.50;;
5688;SDS011;2869;50.432;8.680;2023-06-26T03:23:57;16.37;;;11.30;;
5688;SDS011;2869;50.432;8.680;2023-06-26T03:26:24;14.93;;;11.53;;
5688;SDS011;2869;50.432;8.680;2023-06-26T03:28:52;17.67;;;11.50;;
5688;SDS011;2869;50.432;8.680;2023-06-26T03:31:19;13.87;;;11.80;;
5688;SDS011;2869;50.432;8.680;2023-06-26T03:33:45;11.80;;;10.30;;
5688;SDS011;2869;50.432;8.680;2023-06-26T03:36:12;11.60;;;10.00;;
5688;SDS011;2869;50.432;8.680;2023-06-26T03:38:39;12.60;;;10.57;;
5688;SDS011;2869;50.432;8.680;2023-06-26T03:41:07;16.67;;;11.73;;
5688;SDS011;2869;50.432;8.680;2023-06-26T03:43:33;17.50;;;12.00;;
5688;SDS011;2869;50.432;8.680;2023-06-26T03:46:00;16.23;;;11.80;;
5688;SDS011;2869;50.432;8.680;2023-06-26T03:48:26;16.20;;;12.27;;
5688;SDS011;2869;50.432;8.680;2023-06-26T03:50:53;13.10;;;11.40;;
5688;SDS011;2869;50.432;8.680;2023-06-26T03:53:20;15.83;;;11.60;;
5688;SDS011;2869;50.432;8.680;2023-06-26T03:55:47;13.80;;;12.03;;
5688;SDS011;2869;50.432;8.680;2023-06-26T03:58:15;20.80;;;12.17;;
5688;SDS011;2869;50.432;8.680;2023-06-26T04:00:41;15.00;;;12.03;;
5688;SDS011;2869;50.432;8.680;2023-06-26T04:03:08;17.60;;;12.20;;
5688;SDS011;2869;50.432;8.680;2023-06-26T04:05:35;15.17;;;12.40;;
5688;SDS011;2869;50.432;8.680;2023-06-26T04:08:01;14.27;;;12.20;;
5688;SDS011;2869;50.432;8.680;2023-06-26T04:10:28;17.77;;;12.63;;
5688;SDS011;2869;50.432;8.680;2023-06-26T04:12:54;16.10;;;11.93;;
5688;SDS011;2869;50.432;8.680;2023-06-26T04:15:23;14.90;;;12.17;;
5688;SDS011;2869;50.432;8.680;2023-06-26T04:17:49;16.70;;;12.53;;
5688;SDS011;2869;50.432;8.680;2023-06-26T04:20:16;17.43;;;11.70;;
5688;SDS011;2869;50.432;8.680;2023-06-26T04:22:43;14.63;;;12.43;;
5688;SDS011;2869;50.432;8.680;2023-06-26T04:25:10;15.20;;;11.40;;
5688;SDS011;2869;50.432;8.680;2023-06-26T04:27:37;16.50;;;11.53;;
5688;SDS011;2869;50.432;8.680;2023-06-26T04:30:05;14.60;;;10.80;;
5688;SDS011;2869;50.432;8.680;2023-06-26T04:32:34;15.23;;;10.60;;
5688;SDS011;2869;50.432;8.680;2023-06-26T04:35:00;15.73;;;10.53;;
5688;SDS011;2869;50.432;8.680;2023-06-26T04:37:27;14.87;;;11.13;;
5688;SDS011;2869;50.432;8.680;2023-06-26T04:39:54;13.00;;;10.10;;
5688;SDS011;2869;50.432;8.680;2023-06-26T04:42:21;15.10;;;10.83;;
5688;SDS011;2869;50.432;8.680;2023-06-26T04:44:47;14.30;;;10.67;;
5688;SDS011;2869;50.432;8.680;2023-06-26T04:47:14;13.63;;;10.23;;
5688;SDS011;2869;50.432;8.680;2023-06-26T04:49:42;12.90;;;10.40;;
5688;SDS011;2869;50.432;8.680;2023-06-26T04:52:10;20.50;;;12.03;;
5688;SDS011;2869;50.432;8.680;2023-06-26T04:54:38;13.33;;;10.67;;
5688;SDS011;2869;50.432;8.680;2023-06-26T04:57:05;13.67;;;10.53;;
5688;SDS011;2869;50.432;8.680;2023-06-26T04:59:33;18.60;;;11.40;;
5688;SDS011;2869;50.432;8.680;2023-06-26T05:02:00;14.77;;;11.70;;
5688;SDS011;2869;50.432;8.680;2023-06-26T05:04:27;14.10;;;11.70;;
5688;SDS011;2869;50.432;8.680;2023-06-26T05:06:55;15.87;;;11.30;;
5688;SDS011;2869;50.432;8.680;2023-06-26T05:09:21;18.23;;;11.70;;
5688;SDS011;2869;50.432;8.680;2023-06-26T05:11:48;13.70;;;11.03;;
5688;SDS011;2869;50.432;8.680;2023-06-26T05:14:14;18.23;;;11.43;;
5688;SDS011;2869;50.432;8.680;2023-06-26T05:16:41;16.97;;;11.30;;
5688;SDS011;2869;50.432;8.680;2023-06-26T05:19:08;14.90;;;11.37;;
5688;SDS011;2869;50.432;8.680;2023-06-26T05:21:34;16.00;;;11.30;;
5688;SDS011;2869;50.432;8.680;2023-06-26T05:24:03;16.30;;;11.40;;
5688;SDS011;2869;50.432;8.680;2023-06-26T05:26:30;17.13;;;11.27;;
5688;SDS011;2869;50.432;8.680;2023-06-26T05:28:58;17.57;;;11.70;;
5688;SDS011;2869;50.432;8.680;2023-06-26T05:31:25;13.77;;;10.10;;
5688;SDS011;2869;50.432;8.680;2023-06-26T05:33:51;18.47;;;12.53;;
5688;SDS011;2869;50.432;8.680;2023-06-26T05:36:21;16.23;;;10.53;;
5688;SDS011;2869;50.432;8.680;2023-06-26T05:38:50;14.33;;;11.40;;
5688;SDS011;2869;50.432;8.680;2023-06-26T05:41:18;20.83;;;12.53;;
5688;SDS011;2869;50.432;8.680;2023-06-26T05:43:45;13.27;;;10.70;;
5688;SDS011;2869;50.432;8.680;2023-06-26T05:46:12;12.93;;;10.63;;
5688;SDS011;2869;50.432;8.680;2023-06-26T05:48:39;13.07;;;11.20;;
5688;SDS011;2869;50.432;8.680;2023-06-26T05:51:06;12.60;;;10.60;;
5688;SDS011;2869;50.432;8.680;2023-06-26T05:53:33;16.93;;;11.83;;
5688;SDS011;2869;50.432;8.680;2023-06-26T05:56:00;12.43;;;10.53;;
5688;SDS011;2869;50.432;8.680;2023-06-26T05:58:28;12.37;;;10.57;;
5688;SDS011;2869;50.432;8.680;2023-06-26T06:00:56;16.40;;;11.80;;
5688;SDS011;2869;50.432;8.680;2023-06-26T06:03:23;13.87;;;11.03;;
5688;SDS011;2869;50.432;8.680;2023-06-26T06:05:50;13.43;;;10.53;;
5688;SDS011;2869;50.432;8.680;2023-06-26T06:08:16;14.60;;;12.20;;
5688;SDS011;2869;50.432;8.680;2023-06-26T06:10:43;13.23;;;11.13;;
5688;SDS011;2869;50.432;8.680;2023-06-26T06:13:10;14.50;;;11.43;;
5688;SDS011;2869;50.432;8.680;2023-06-26T06:15:37;13.83;;;11.57;;
5688;SDS011;2869;50.432;8.680;2023-06-26T06:18:04;15.63;;;11.23;;
5688;SDS011;2869;50.432;8.680;2023-06-26T06:20:31;14.40;;;11.37;;
5688;SDS011;2869;50.432;8.680;2023-06-26T06:22:57;15.10;;;10.63;;
5688;SDS011;2869;50.432;8.680;2023-06-26T06:25:24;17.77;;;12.20;;
5688;SDS011;2869;50.432;8.680;2023-06-26T06:27:51;13.67;;;11.47;;
5688;SDS011;2869;50.432;8.680;2023-06-26T06:30:17;17.10;;;10.50;;
5688;SDS011;2869;50.432;8.680;2023-06-26T06:32:45;13.73;;;10.90;;
5688;SDS011;2869;50.432;8.680;2023-06-26T06:35:15;21.03;;;11.30;;
5688;SDS011;2869;50.432;8.680;2023-06-26T06:37:42;13.80;;;11.57;;
5688;SDS011;2869;50.432;8.680;2023-06-26T06:40:09;16.33;;;11.93;;
5688;SDS011;2869;50.432;8.680;2023-06-26T06:42:36;13.33;;;11.43;;
5688;SDS011;2869;50.432;8.680;2023-06-26T06:45:03;15.40;;;11.80;;
5688;SDS011;2869;50.432;8.680;2023-06-26T06:47:31;14.87;;;11.90;;
5688;SDS011;2869;50.432;8.680;2023-06-26T06:50:00;18.50;;;11.33;;
5688;SDS011;2869;50.432;8.680;2023-06-26T06:52:33;16.00;;;11.23;;
5688;SDS011;2869;50.432;8.680;2023-06-26T06:55:00;13.20;;;11.40;;
5688;SDS011;2869;50.432;8.680;2023-06-26T06:57:31;20.13;;;11.63;;
5688;SDS011;2869;50.432;8.680;2023-06-26T07:00:01;12.90;;;10.60;;
5688;SDS011;2869;50.432;8.680;2023-06-26T07:02:29;16.27;;;11.90;;
5688;SDS011;2869;50.432;8.680;2023-06-26T07:04:56;13.67;;;11.70;;
5688;SDS011;2869;50.432;8.680;2023-06-26T07:07:24;14.60;;;11.30;;
5688;SDS011;2869;50.432;8.680;2023-06-26T07:09:55;20.10;;;11.70;;
5688;SDS011;2869;50.432;8.680;2023-06-26T07:12:23;18.37;;;11.67;;
5688;SDS011;2869;50.432;8.680;2023-06-26T07:14:50;14.37;;;10.73;;
5688;SDS011;2869;50.432;8.680;2023-06-26T07:17:16;16.83;;;9.97;;
5688;SDS011;2869;50.432;8.680;2023-06-26T07:19:43;18.40;;;11.30;;
5688;SDS011;2869;50.432;8.680;2023-06-26T07:22:09;20.70;;;10.57;;
5688;SDS011;2869;50.432;8.680;2023-06-26T07:24:37;13.30;;;10.43;;
5688;SDS011;2869;50.432;8.680;2023-06-26T07:27:04;20.40;;;11.27;;
5688;SDS011;2869;50.432;8.680;2023-06-26T07:29:31;12.47;;;10.53;;
5688;SDS011;2869;50.432;8.680;2023-06-26T07:31:58;16.10;;;11.20;;
5688;SDS011;2869;50.432;8.680;2023-06-26T07:34:25;16.50;;;10.40;;
5688;SDS011;2869;50.432;8.680;2023-06-26T07:36:51;14.97;;;10.13;;
5688;SDS011;2869;50.432;8.680;2023-06-26T07:39:18;14.73;;;10.37;;
5688;SDS011;2869;50.432;8.680;2023-06-26T07:41:46;14.47;;;9.80;;
5688;SDS011;2869;50.432;8.680;2023-06-26T07:44:12;16.80;;;11.83;;
5688;SDS011;2869;50.432;8.680;2023-06-26T07:46:39;14.63;;;10.90;;
5688;SDS011;2869;50.432;8.680;2023-06-26T07:49:05;21.97;;;10.00;;
5688;SDS011;2869;50.432;8.680;2023-06-26T07:51:32;15.80;;;9.60;;
5688;SDS011;2869;50.432;8.680;2023-06-26T07:53:59;12.07;;;10.27;;
5688;SDS011;2869;50.432;8.680;2023-06-26T07:56:25;12.70;;;9.23;;
5688;SDS011;2869;50.432;8.680;2023-06-26T07:58:53;19.43;;;9.80;;
5688;SDS011;2869;50.432;8.680;2023-06-26T08:01:22;14.10;;;9.10;;
5688;SDS011;2869;50.432;8.680;2023-06-26T08:03:49;12.03;;;10.17;;
5688;SDS011;2869;50.432;8.680;2023-06-26T08:06:16;13.20;;;10.20;;
5688;SDS011;2869;50.432;8.680;2023-06-26T08:08:43;12.93;;;10.23;;
5688;SDS011;2869;50.432;8.680;2023-06-26T08:11:10;12.40;;;9.87;;
5688;SDS011;2869;50.432;8.680;2023-06-26T08:13:37;13.00;;;9.10;;
5688;SDS011;2869;50.432;8.680;2023-06-26T08:16:05;9.60;;;7.80;;
5688;SDS011;2869;50.432;8.680;2023-06-26T08:18:32;9.57;;;8.57;;
5688;SDS011;2869;50.432;8.680;2023-06-26T08:20:59;10.00;;;8.60;;
5688;SDS011;2869;50.432;8.680;2023-06-26T08:23:25;7.77;;;7.07;;
5688;SDS011;2869;50.432;8.680;2023-06-26T08:25:52;11.83;;;6.70;;
5688;SDS011;2869;50.432;8.680;2023-06-26T08:28:18;7.70;;;6.57;;
5688;SDS011;2869;50.432;8.680;2023-06-26T08:30:45;7.80;;;7.00;;
5688;SDS011;2869;50.432;8.680;2023-06-26T08:33:13;6.60;;;6.00;;
5688;SDS011;2869;50.432;8.680;2023-06-26T08:35:40;7.67;;;6.87;;
5688;SDS011;2869;50.432;8.680;2023-06-26T08:38:07;7.53;;;6.80;;
5688;SDS011;2869;50.432;8.680;2023-06-26T08:40:34;8.40;;;7.30;;
5688;SDS011;2869;50.432;8.680;2023-06-26T08:43:01;8.50;;;6.97;;
5688;SDS011;2869;50.432;8.680;2023-06-26T08:45:29;8.60;;;7.07;;
5688;SDS011;2869;50.432;8.680;2023-06-26T08:47:55;8.23;;;6.93;;
5688;SDS011;2869;50.432;8.680;2023-06-26T08:50:29;10.83;;;6.97;;
5688;SDS011;2869;50.432;8.680;2023-06-26T08:52:59;8.33;;;6.90;;
5688;SDS011;2869;50.432;8.680;2023-06-26T08:55:32;7.93;;;6.87;;
5688;SDS011;2869;50.432;8.680;2023-06-26T08:58:01;7.50;;;6.80;;
5688;SDS011;2869;50.432;8.680;2023-06-26T09:00:28;7.47;;;6.70;;
5688;SDS011;2869;50.432;8.680;2023-06-26T09:02:55;7.97;;;7.17;;
5688;SDS011;2869;50.432;8.680;2023-06-26T09:05:22;11.10;;;6.30;;
5688;SDS011;2869;50.432;8.680;2023-06-26T09:07:50;10.20;;;6.57;;
5688;SDS011;2869;50.432;8.680;2023-06-26T09:10:20;9.33;;;6.90;;
5688;SDS011;2869;50.432;8.680;2023-06-26T09:12:47;8.40;;;7.50;;
5688;SDS011;2869;50.432;8.680;2023-06-26T09:15:14;11.10;;;7.23;;
5688;SDS011;2869;50.432;8.680;2023-06-26T09:17:41;7.77;;;6.97;;
5688;SDS011;2869;50.432;8.680;2023-06-26T09:20:08;8.90;;;6.87;;
5688;SDS011;2869;50.432;8.680;2023-06-26T09:22:37;9.50;;;7.20;;
5688;SDS011;2869;50.432;8.680;2023-06-26T09:25:06;12.90;;;7.20;;
5688;SDS011;2869;50.432;8.680;2023-06-26T09:27:33;9.07;;;7.10;;
5688;SDS011;2869;50.432;8.680;2023-06-26T09:30:01;7.33;;;6.47;;
5688;SDS011;2869;50.432;8.680;2023-06-26T09:32:28;8.17;;;6.30;;
5688;SDS011;2869;50.432;8.680;2023-06-26T09:34:55;7.70;;;7.00;;
5688;SDS011;2869;50.432;8.680;2023-06-26T09:37:22;7.37;;;6.60;;
5688;SDS011;2869;50.432;8.680;2023-06-26T09:39:50;8.27;;;6.17;;
5688;SDS011;2869;50.432;8.680;2023-06-26T09:42:18;8.03;;;6.67;;
5688;SDS011;2869;50.432;8.680;2023-06-26T09:44:45;7.40;;;6.70;;
5688;SDS011;2869;50.432;8.680;2023-06-26T09:47:12;8.23;;;6.90;;
5688;SDS011;2869;50.432;8.680;2023-06-26T09:49:42;11.07;;;7.10;;
5688;SDS011;2869;50.432;8.680;2023-06-26T09:52:09;7.50;;;6.67;;
5688;SDS011;2869;50.432;8.680;2023-06-26T09:54:39;8.37;;;6.63;;
5688;SDS011;2869;50.432;8.680;2023-06-26T09:57:06;9.03;;;6.63;;
5688;SDS011;2869;50.432;8.680;2023-06-26T09:59:35;10.30;;;7.30;;
5688;SDS011;2869;50.432;8.680;2023-06-26T10:02:02;7.83;;;6.37;;
5688;SDS011;2869;50.432;8.680;2023-06-26T10:04:29;13.07;;;6.20;;
5688;SDS011;2869;50.432;8.680;2023-06-26T10:06:56;8.00;;;6.90;;
5688;SDS011;2869;50.432;8.680;2023-06-26T10:09:24;10.30;;;6.50;;
5688;SDS011;2869;50.432;8.680;2023-06-26T10:11:53;10.87;;;7.50;;
5688;SDS011;2869;50.432;8.680;2023-06-26T10:14:22;8.43;;;6.30;;
5688;SDS011;2869;50.432;8.680;2023-06-26T10:16:54;12.80;;;6.40;;
5688;SDS011;2869;50.432;8.680;2023-06-26T10:19:23;12.67;;;6.30;;
5688;SDS011;2869;50.432;8.680;2023-06-26T10:21:53;7.90;;;5.60;;
5688;SDS011;2869;50.432;8.680;2023-06-26T10:24:20;9.43;;;6.33;;
5688;SDS011;2869;50.432;8.680;2023-06-26T10:26:49;8.80;;;5.90;;
5688;SDS011;2869;50.432;8.680;2023-06-26T10:29:18;7.40;;;6.53;;
5688;SDS011;2869;50.432;8.680;2023-06-26T10:31:49;10.60;;;6.90;;
5688;SDS011;2869;50.432;8.680;2023-06-26T10:34:20;7.45;;;6.60;;
5688;SDS011;2869;50.432;8.680;2023-06-26T10:36:47;12.57;;;7.10;;
5688;SDS011;2869;50.432;8.680;2023-06-26T10:39:24;9.40;;;6.20;;
5688;SDS011;2869;50.432;8.680;2023-06-26T10:41:51;9.13;;;6.50;;
5688;SDS011;2869;50.432;8.680;2023-06-26T10:44:20;9.50;;;6.30;;
5688;SDS011;2869;50.432;8.680;2023-06-26T10:46:50;10.47;;;6.00;;
5688;SDS011;2869;50.432;8.680;2023-06-26T10:49:19;7.63;;;5.60;;
5688;SDS011;2869;50.432;8.680;2023-06-26T10:51:47;8.40;;;6.60;;
5688;SDS011;2869;50.432;8.680;2023-06-26T10:54:15;5.87;;;5.30;;
5688;SDS011;2869;50.432;8.680;2023-06-26T10:56:42;14.50;;;5.50;;
5688;SDS011;2869;50.432;8.680;2023-06-26T10:59:14;7.90;;;6.00;;
5688;SDS011;2869;50.432;8.680;2023-06-26T11:01:42;11.43;;;6.27;;
5688;SDS011;2869;50.432;8.680;2023-06-26T11:04:09;7.43;;;6.27;;
5688;SDS011;2869;50.432;8.680;2023-06-26T11:06:38;9.57;;;6.60;;
5688;SDS011;2869;50.432;8.680;2023-06-26T11:09:06;6.10;;;5.50;;
5688;SDS011;2869;50.432;8.680;2023-06-26T11:14:27;7.67;;;6.03;;
5688;SDS011;2869;50.432;8.680;2023-06-26T11:16:54;11.93;;;6.23;;
5688;SDS011;2869;50.432;8.680;2023-06-26T11:19:22;9.17;;;5.20;;
5688;SDS011;2869;50.432;8.680;2023-06-26T11:21:50;7.00;;;5.30;;
5688;SDS011;2869;50.432;8.680;2023-06-26T11:24:17;10.97;;;5.70;;
5688;SDS011;2869;50.432;8.680;2023-06-26T11:26:44;9.37;;;5.27;;
5688;SDS011;2869;50.432;8.680;2023-06-26T11:29:12;8.00;;;5.80;;
5688;SDS011;2869;50.432;8.680;2023-06-26T11:31:39;6.80;;;5.30;;
5688;SDS011;2869;50.432;8.680;2023-06-26T11:34:08;9.67;;;5.40;;
5688;SDS011;2869;50.432;8.680;2023-06-26T11:36:36;8.13;;;5.40;;
5688;SDS011;2869;50.432;8.680;2023-06-26T11:39:05;10.07;;;5.53;;
5688;SDS011;2869;50.432;8.680;2023-06-26T11:41:32;6.53;;;5.67;;
5688;SDS011;2869;50.432;8.680;2023-06-26T11:44:01;10.43;;;6.40;;
5688;SDS011;2869;50.432;8.680;2023-06-26T11:46:28;9.07;;;6.43;;
5688;SDS011;2869;50.432;8.680;2023-06-26T11:48:56;9.10;;;5.47;;
5688;SDS011;2869;50.432;8.680;2023-06-26T11:51:23;17.23;;;6.17;;
5688;SDS011;2869;50.432;8.680;2023-06-26T11:53:49;8.87;;;6.40;;
5688;SDS011;2869;50.432;8.680;2023-06-26T11:56:19;11.27;;;5.90;;
5688;SDS011;2869;50.432;8.680;2023-06-26T11:58:56;9.57;;;6.50;;
5688;SDS011;2869;50.432;8.680;2023-06-26T12:01:25;7.30;;;5.70;;
5688;SDS011;2869;50.432;8.680;2023-06-26T12:03:54;12.67;;;5.90;;
5688;SDS011;2869;50.432;8.680;2023-06-26T12:06:24;9.70;;;6.00;;
5688;SDS011;2869;50.432;8.680;2023-06-26T12:08:50;7.83;;;5.83;;
5688;SDS011;2869;50.432;8.680;2023-06-26T12:11:19;9.27;;;6.00;;
5688;SDS011;2869;50.432;8.680;2023-06-26T12:13:48;11.57;;;6.70;;
5688;SDS011;2869;50.432;8.680;2023-06-26T12:16:15;12.07;;;6.17;;
5688;SDS011;2869;50.432;8.680;2023-06-26T12:18:42;11.30;;;7.00;;
5688;SDS011;2869;50.432;8.680;2023-06-26T12:21:08;8.60;;;5.97;;
5688;SDS011;2869;50.432;8.680;2023-06-26T12:23:57;13.80;;;5.80;;
5688;SDS011;2869;50.432;8.680;2023-06-26T12:26:26;9.17;;;6.00;;
5688;SDS011;2869;50.432;8.680;2023-06-26T12:28:53;16.10;;;5.43;;
5688;SDS011;2869;50.432;8.680;2023-06-26T12:31:27;11.13;;;5.83;;
5688;SDS011;2869;50.432;8.680;2023-06-26T12:33:53;9.30;;;5.70;;
5688;SDS011;2869;50.432;8.680;2023-06-26T12:36:20;10.10;;;5.80;;
5688;SDS011;2869;50.432;8.680;2023-06-26T12:38:48;8.03;;;5.30;;
5688;SDS011;2869;50.432;8.680;2023-06-26T12:41:15;6.33;;;5.07;;
5688;SDS011;2869;50.432;8.680;2023-06-26T12:43:43;7.97;;;5.57;;
5688;SDS011;2869;50.432;8.680;2023-06-26T12:46:10;11.40;;;5.30;;
5688;SDS011;2869;50.432;8.680;2023-06-26T12:48:37;10.03;;;5.20;;
5688;SDS011;2869;50.432;8.680;2023-06-26T12:51:08;8.50;;;5.03;;
5688;SDS011;2869;50.432;8.680;2023-06-26T12:53:35;6.00;;;4.63;;
5688;SDS011;2869;50.432;8.680;2023-06-26T12:56:04;12.10;;;5.17;;
5688;SDS011;2869;50.432;8.680;2023-06-26T12:58:31;7.17;;;4.63;;
5688;SDS011;2869;50.432;8.680;2023-06-26T13:00:59;7.67;;;4.70;;
5688;SDS011;2869;50.432;8.680;2023-06-26T13:03:25;8.43;;;4.90;;
5688;SDS011;2869;50.432;8.680;2023-06-26T13:05:52;17.33;;;5.00;;
5688;SDS011;2869;50.432;8.680;2023-06-26T13:08:18;6.70;;;4.60;;
5688;SDS011;2869;50.432;8.680;2023-06-26T13:10:45;6.97;;;4.60;;
5688;SDS011;2869;50.432;8.680;2023-06-26T13:13:12;9.27;;;4.50;;
5688;SDS011;2869;50.432;8.680;2023-06-26T13:15:39;13.90;;;4.47;;
5688;SDS011;2869;50.432;8.680;2023-06-26T13:18:07;7.40;;;4.30;;
5688;SDS011;2869;50.432;8.680;2023-06-26T13:20:33;5.97;;;3.60;;
5688;SDS011;2869;50.432;8.680;2023-06-26T13:23:00;7.90;;;3.67;;
5688;SDS011;2869;50.432;8.680;2023-06-26T13:25:27;5.03;;;4.20;;
5688;SDS011;2869;50.432;8.680;2023-06-26T13:27:53;10.90;;;4.37;;
5688;SDS011;2869;50.432;8.680;2023-06-26T13:30:21;8.30;;;3.70;;
5688;SDS011;2869;50.432;8.680;2023-06-26T13:32:47;5.60;;;3.83;;
5688;SDS011;2869;50.432;8.680;2023-06-26T13:35:15;5.87;;;3.73;;
5688;SDS011;2869;50.432;8.680;2023-06-26T13:37:43;5.60;;;3.50;;
5688;SDS011;2869;50.432;8.680;2023-06-26T13:40:10;8.00;;;3.30;;
5688;SDS011;2869;50.432;8.680;2023-06-26T13:42:37;5.13;;;3.33;;
5688;SDS011;2869;50.432;8.680;2023-06-26T13:45:04;4.17;;;3.77;;
5688;SDS011;2869;50.432;8.680;2023-06-26T13:47:32;4.37;;;3.10;;
5688;SDS011;2869;50.432;8.680;2023-06-26T13:49:59;5.00;;;3.10;;
5688;SDS011;2869;50.432;8.680;2023-06-26T13:52:27;13.93;;;2.90;;
5688;SDS011;2869;50.432;8.680;2023-06-26T13:54:54;6.17;;;3.33;;
5688;SDS011;2869;50.432;8.680;2023-06-26T13:57:20;9.10;;;3.30;;
5688;SDS011;2869;50.432;8.680;2023-06-26T13:59:47;6.43;;;3.10;;
5688;SDS011;2869;50.432;8.680;2023-06-26T14:02:14;12.37;;;3.00;;
5688;SDS011;2869;50.432;8.680;2023-06-26T14:04:41;7.90;;;3.30;;
5688;SDS011;2869;50.432;8.680;2023-06-26T14:07:08;4.20;;;2.90;;
5688;SDS011;2869;50.432;8.680;2023-06-26T14:09:36;4.10;;;2.83;;
5688;SDS011;2869;50.432;8.680;2023-06-26T14:12:03;7.30;;;3.10;;
5688;SDS011;2869;50.432;8.680;2023-06-26T14:14:31;9.23;;;3.37;;
5688;SDS011;2869;50.432;8.680;2023-06-26T14:16:57;12.20;;;3.17;;
5688;SDS011;2869;50.432;8.680;2023-06-26T14:19:25;10.47;;;3.13;;
5688;SDS011;2869;50.432;8.680;2023-06-26T14:21:51;9.70;;;2.60;;
5688;SDS011;2869;50.432;8.680;2023-06-26T14:24:18;6.43;;;2.30;;
5688;SDS011;2869;50.432;8.680;2023-06-26T14:26:46;8.30;;;3.00;;
5688;SDS011;2869;50.432;8.680;2023-06-26T14:29:13;5.30;;;2.53;;
5688;SDS011;2869;50.432;8.680;2023-06-26T14:31:42;3.70;;;2.50;;
5688;SDS011;2869;50.432;8.680;2023-06-26T14:34:08;6.07;;;3.20;;
5688;SDS011;2869;50.432;8.680;2023-06-26T14:36:35;7.70;;;2.70;;
5688;SDS011;2869;50.432;8.680;2023-06-26T14:39:02;5.97;;;2.80;;
5688;SDS011;2869;50.432;8.680;2023-06-26T14:41:29;4.40;;;2.80;;
5688;SDS011;2869;50.432;8.680;2023-06-26T14:43:57;5.47;;;3.00;;
5688;SDS011;2869;50.432;8.680;2023-06-26T14:46:24;3.90;;;2.33;;
5688;SDS011;2869;50.432;8.680;2023-06-26T14:48:50;3.80;;;2.43;;
5688;SDS011;2869;50.432;8.680;2023-06-26T14:51:17;4.27;;;2.37;;
5688;SDS011;2869;50.432;8.680;2023-06-26T14:53:44;4.60;;;2.60;;
5688;SDS011;2869;50.432;8.680;2023-06-26T14:56:12;4.87;;;2.43;;
5688;SDS011;2869;50.432;8.680;2023-06-26T14:58:39;6.13;;;2.50;;
5688;SDS011;2869;50.432;8.680;2023-06-26T15:01:07;11.53;;;2.77;;
5688;SDS011;2869;50.432;8.680;2023-06-26T15:03:34;3.30;;;2.37;;
5688;SDS011;2869;50.432;8.680;2023-06-26T15:06:00;9.37;;;3.00;;
5688;SDS011;2869;50.432;8.680;2023-06-26T15:08:27;6.23;;;2.90;;